Time;durP1;ratioP1;P1;durP2;ratioP2;P2;SDS_P1;SDS_P2;PMS_P1;PMS_P2;Temp;Humidity;BMP_temperature;BMP_pressure;BME280_temperature;BME280_humidity;BME280_pressure;Samples;Min_cycle;Max_cycle;Signal;HPM_P1;HPM_P2
2022/10/26 00:00:24;;;;;;;;;;;15.40;99.90;;;;;;4994495;28;19949;-63
2022/10/26 00:02:49;;;;;;;;;;;15.40;99.90;;;;;;4990991;28;19945;-63
2022/10/26 00:05:15;;;;;;;;;;;15.40;99.90;;;;;;5003051;28;19914;-63
2022/10/26 00:07:40;;;;;;;;;;;15.40;99.90;;;;;;4995743;28;19974;-63
2022/10/26 00:10:06;;;;;;;;;;;15.40;99.90;;;;;;4994150;28;19953;-63
2022/10/26 00:12:32;;;;;;;;;;;15.40;99.90;;;;;;4994824;28;20004;-64
2022/10/26 00:14:57;;;;;;;;;;;15.40;99.90;;;;;;5004895;28;19916;-65
2022/10/26 00:17:23;;;;;;;;;;;15.50;99.90;;;;;;4996966;28;19959;-64
2022/10/26 00:19:48;;;;;;;;;;;15.50;99.90;;;;;;5006388;28;19917;-64
2022/10/26 00:22:14;;;;;;;;;;;15.50;99.90;;;;;;4999666;28;20417;-64
2022/10/26 00:24:39;;;;;;;;;;;15.50;99.90;;;;;;4996559;28;19913;-64
2022/10/26 00:27:05;;;;;;;;;;;15.60;99.90;;;;;;4998495;28;20044;-64
2022/10/26 00:29:30;;;;;;;;;;;15.70;99.90;;;;;;4996616;28;19976;-63
2022/10/26 00:31:56;;;;;;;;;;;15.80;99.90;;;;;;5003764;28;19910;-61
2022/10/26 00:34:21;;;;;;;;;;;15.80;99.90;;;;;;4998438;28;19909;-62
2022/10/26 00:36:47;;;;;;;;;;;15.80;99.90;;;;;;5003272;28;19929;-63
2022/10/26 00:39:13;;;;;;;;;;;15.80;99.90;;;;;;4995994;28;19910;-63
2022/10/26 00:41:38;;;;;;;;;;;15.80;99.90;;;;;;5007097;28;19942;-62
2022/10/26 00:44:22;;;;;;;;;;;15.90;99.90;;;;;;4986837;28;19913;-63
2022/10/26 00:46:48;;;;;;;;;;;15.90;99.90;;;;;;4998269;28;19988;-62
2022/10/26 00:49:15;;;;;;;;;;;15.90;99.90;;;;;;5001873;28;20012;-63
2022/10/26 00:51:42;;;;;;;;;;;15.90;99.90;;;;;;4991843;28;19909;-63
2022/10/26 00:54:10;;;;;;;;;;;15.90;99.90;;;;;;5001190;28;19909;-63
2022/10/26 00:56:36;;;;;;;;;;;15.90;99.90;;;;;;4993266;28;20408;-63
2022/10/26 00:59:04;;;;;;;;;;;16.00;99.90;;;;;;4999315;28;20009;-63
2022/10/26 01:01:30;;;;;;;;;;;15.90;99.90;;;;;;4999498;28;19922;-63
2022/10/26 01:03:56;;;;;;;;;;;16.00;99.90;;;;;;5005785;28;19964;-63
2022/10/26 01:06:21;;;;;;;;;;;15.90;99.90;;;;;;5003133;28;19913;-63
2022/10/26 01:08:47;;;;;;;;;;;15.90;99.90;;;;;;4997419;28;19956;-63
2022/10/26 01:11:13;;;;;;;;;;;16.00;99.90;;;;;;4995395;28;19913;-63
2022/10/26 01:13:40;;;;;;;;;;;15.90;99.90;;;;;;5001817;28;19909;-63
2022/10/26 01:16:24;;;;;;;;;;;15.90;99.90;;;;;;4997698;28;19909;-65
2022/10/26 01:19:10;;;;;;;;;;;15.90;99.90;;;;;;5002941;28;20329;-65
2022/10/26 01:21:57;;;;;;;;;;;15.90;99.90;;;;;;4983182;28;19914;-64
2022/10/26 01:24:41;;;;;;;;;;;15.90;99.90;;;;;;4987308;28;19910;-63
2022/10/26 01:27:14;;;;;;;;;;;15.90;99.90;;;;;;5003312;28;19917;-62
2022/10/26 01:29:40;;;;;;;;;;;15.90;99.90;;;;;;5000841;28;19909;-63
2022/10/26 01:32:14;;;;;;;;;;;15.80;99.90;;;;;;5000556;28;20018;-63
2022/10/26 01:34:40;;;;;;;;;;;15.80;99.90;;;;;;5001299;28;19916;-63
2022/10/26 01:37:14;;;;;;;;;;;15.90;99.90;;;;;;5007789;28;19909;-63
2022/10/26 01:39:42;;;;;;;;;;;15.90;99.90;;;;;;4996773;28;19937;-63
2022/10/26 01:42:08;;;;;;;;;;;15.90;99.90;;;;;;5006509;28;19920;-62
2022/10/26 01:44:33;;;;;;;;;;;15.90;99.90;;;;;;4992395;28;20008;-62
2022/10/26 01:47:00;;;;;;;;;;;15.90;99.90;;;;;;5001322;28;19909;-63
2022/10/26 01:49:27;;;;;;;;;;;15.90;99.90;;;;;;5004961;28;19932;-63
2022/10/26 01:51:53;;;;;;;;;;;15.80;99.90;;;;;;5010137;28;19945;-63
2022/10/26 01:54:18;;;;;;;;;;;15.80;99.90;;;;;;4998873;28;19953;-63
2022/10/26 01:56:46;;;;;;;;;;;15.80;99.90;;;;;;5008211;28;20349;-63
2022/10/26 01:59:30;;;;;;;;;;;15.90;99.90;;;;;;4999713;28;19921;-63
2022/10/26 02:02:02;;;;;;;;;;;15.90;99.90;;;;;;5001117;28;19971;-62
2022/10/26 02:04:48;;;;;;;;;;;15.90;99.90;;;;;;4994566;28;19913;-62
2022/10/26 02:07:14;;;;;;;;;;;15.90;99.90;;;;;;4983716;28;20340;-62
2022/10/26 02:09:48;;;;;;;;;;;15.90;99.90;;;;;;5001895;28;19917;-62
2022/10/26 02:12:21;;;;;;;;;;;15.80;99.90;;;;;;4997729;28;20260;-62
2022/10/26 02:14:53;;;;;;;;;;;15.80;99.90;;;;;;4993640;28;19910;-62
2022/10/26 02:17:21;;;;;;;;;;;15.70;99.90;;;;;;4997758;28;19916;-62
2022/10/26 02:19:49;;;;;;;;;;;15.80;99.90;;;;;;4998763;28;19958;-62
2022/10/26 02:22:24;;;;;;;;;;;15.80;99.90;;;;;;4993173;28;20005;-62
2022/10/26 02:24:50;;;;;;;;;;;15.80;99.90;;;;;;4994433;28;19910;-63
2022/10/26 02:27:19;;;;;;;;;;;15.70;99.90;;;;;;4995412;28;19918;-64
2022/10/26 02:29:45;;;;;;;;;;;15.80;99.90;;;;;;5001109;28;19913;-63
2022/10/26 02:32:11;;;;;;;;;;;15.80;99.90;;;;;;4992720;28;20460;-63
2022/10/26 02:34:37;;;;;;;;;;;15.70;99.90;;;;;;4992939;28;20004;-63
2022/10/26 02:37:03;;;;;;;;;;;15.70;99.90;;;;;;5000425;28;20357;-62
2022/10/26 02:39:31;;;;;;;;;;;15.70;99.90;;;;;;4993515;28;19910;-62
2022/10/26 02:41:58;;;;;;;;;;;15.70;99.90;;;;;;4995786;28;19916;-63
2022/10/26 02:44:29;;;;;;;;;;;15.70;99.90;;;;;;5006145;28;20018;-62
2022/10/26 02:46:55;;;;;;;;;;;15.80;99.90;;;;;;4998104;28;19925;-62
2022/10/26 02:49:21;;;;;;;;;;;15.90;99.90;;;;;;4995343;28;20000;-64
2022/10/26 02:52:05;;;;;;;;;;;15.90;99.90;;;;;;5004399;28;19959;-62
2022/10/26 02:54:30;;;;;;;;;;;15.90;99.90;;;;;;4983277;28;19917;-62
2022/10/26 02:57:03;;;;;;;;;;;15.90;99.90;;;;;;4998124;28;19909;-62
2022/10/26 02:59:30;;;;;;;;;;;15.90;99.90;;;;;;5003043;28;19914;-62
2022/10/26 03:01:56;;;;;;;;;;;15.80;99.90;;;;;;4998219;28;19924;-62
2022/10/26 03:04:27;;;;;;;;;;;15.70;99.90;;;;;;4996851;28;20004;-62
2022/10/26 03:06:53;;;;;;;;;;;15.70;99.90;;;;;;4998913;28;19955;-62
2022/10/26 03:09:19;;;;;;;;;;;15.70;99.90;;;;;;4998233;28;20350;-62
2022/10/26 03:11:44;;;;;;;;;;;15.60;99.90;;;;;;5007075;28;19945;-62
2022/10/26 03:14:10;;;;;;;;;;;15.70;99.90;;;;;;4995962;28;19956;-63
2022/10/26 03:16:35;;;;;;;;;;;15.70;99.90;;;;;;4996274;28;19940;-64
2022/10/26 03:19:01;;;;;;;;;;;15.70;99.90;;;;;;5001623;28;19914;-62
2022/10/26 03:21:27;;;;;;;;;;;15.70;99.90;;;;;;4991699;28;19917;-62
2022/10/26 03:23:53;;;;;;;;;;;15.60;99.90;;;;;;4996845;28;20361;-63
2022/10/26 03:26:18;;;;;;;;;;;15.60;99.90;;;;;;4997950;28;20008;-62
2022/10/26 03:28:44;;;;;;;;;;;15.60;99.90;;;;;;5006405;28;20357;-62
2022/10/26 03:31:09;;;;;;;;;;;15.70;99.90;;;;;;4993857;28;19910;-63
2022/10/26 03:33:35;;;;;;;;;;;15.80;99.90;;;;;;4992239;28;19962;-63
2022/10/26 03:36:00;;;;;;;;;;;15.90;99.90;;;;;;5000961;28;19921;-62
2022/10/26 03:38:26;;;;;;;;;;;15.90;99.90;;;;;;4998349;28;19914;-63
2022/10/26 03:40:52;;;;;;;;;;;16.00;99.90;;;;;;4997147;28;19909;-62
2022/10/26 03:43:18;;;;;;;;;;;16.00;99.90;;;;;;4994226;28;19916;-63
2022/10/26 03:45:43;;;;;;;;;;;16.10;99.90;;;;;;4996599;28;19949;-63
2022/10/26 03:48:09;;;;;;;;;;;16.20;99.90;;;;;;4994676;28;20294;-63
2022/10/26 03:50:34;;;;;;;;;;;16.30;99.90;;;;;;4996372;28;20354;-63
2022/10/26 03:53:00;;;;;;;;;;;16.30;99.90;;;;;;5003456;28;19909;-62
2022/10/26 03:55:25;;;;;;;;;;;16.40;99.90;;;;;;4997997;28;20012;-63
2022/10/26 03:57:51;;;;;;;;;;;16.40;99.90;;;;;;4995477;28;19952;-63
2022/10/26 04:00:16;;;;;;;;;;;16.40;99.90;;;;;;4996864;28;20361;-62
2022/10/26 04:02:45;;;;;;;;;;;16.40;99.90;;;;;;4994891;28;20005;-62
2022/10/26 04:05:11;;;;;;;;;;;16.50;99.90;;;;;;5000511;28;20370;-63
2022/10/26 04:07:36;;;;;;;;;;;16.50;99.90;;;;;;4996974;28;19917;-63
2022/10/26 04:10:02;;;;;;;;;;;16.50;99.90;;;;;;5003159;28;19956;-63
2022/10/26 04:12:28;;;;;;;;;;;16.50;99.90;;;;;;4999367;28;19910;-64
2022/10/26 04:14:56;;;;;;;;;;;16.50;99.90;;;;;;4992549;28;20388;-64
2022/10/26 04:17:22;;;;;;;;;;;16.50;99.90;;;;;;4991915;28;19909;-63
2022/10/26 04:19:48;;;;;;;;;;;16.60;99.90;;;;;;4996809;28;19955;-64
2022/10/26 04:22:13;;;;;;;;;;;16.60;99.90;;;;;;4995658;28;20007;-64
2022/10/26 04:24:39;;;;;;;;;;;16.60;99.90;;;;;;4994713;28;19909;-64
2022/10/26 04:27:04;;;;;;;;;;;16.50;99.90;;;;;;4998777;28;19910;-63
2022/10/26 04:29:30;;;;;;;;;;;16.40;99.90;;;;;;4998642;28;19922;-63
2022/10/26 04:31:55;;;;;;;;;;;16.30;99.90;;;;;;4993741;28;19910;-62
2022/10/26 04:34:21;;;;;;;;;;;16.20;99.90;;;;;;4993602;28;19915;-63
2022/10/26 04:36:46;;;;;;;;;;;16.10;99.90;;;;;;4991534;28;19910;-63
2022/10/26 04:39:12;;;;;;;;;;;16.00;99.90;;;;;;4989090;28;20451;-63
2022/10/26 04:41:37;;;;;;;;;;;15.90;99.90;;;;;;4998835;28;19964;-62
2022/10/26 04:44:03;;;;;;;;;;;15.90;99.90;;;;;;4995023;28;19910;-62
2022/10/26 04:46:28;;;;;;;;;;;15.90;99.90;;;;;;4989790;28;20000;-62
2022/10/26 04:48:54;;;;;;;;;;;15.80;99.90;;;;;;4994607;28;19918;-62
2022/10/26 04:51:19;;;;;;;;;;;15.80;99.90;;;;;;4989953;28;20265;-62
2022/10/26 04:53:45;;;;;;;;;;;15.80;99.90;;;;;;4997759;28;20643;-62
2022/10/26 04:56:10;;;;;;;;;;;15.80;99.90;;;;;;4991051;28;19963;-62
2022/10/26 04:58:36;;;;;;;;;;;15.80;99.90;;;;;;4991789;28;20251;-62
2022/10/26 05:01:02;;;;;;;;;;;15.90;99.90;;;;;;4987989;28;20325;-62
2022/10/26 05:03:27;;;;;;;;;;;15.90;99.90;;;;;;4988452;28;19928;-62
2022/10/26 05:05:53;;;;;;;;;;;16.00;99.90;;;;;;4987096;28;19917;-63
2022/10/26 05:08:18;;;;;;;;;;;16.00;99.90;;;;;;4992307;28;19924;-62
2022/10/26 05:10:47;;;;;;;;;;;16.10;99.90;;;;;;4990448;28;20344;-62
2022/10/26 05:13:13;;;;;;;;;;;16.20;99.90;;;;;;4994470;28;19918;-64
2022/10/26 05:15:38;;;;;;;;;;;16.20;99.90;;;;;;4990672;28;19917;-62
2022/10/26 05:18:04;;;;;;;;;;;16.30;99.90;;;;;;4988451;28;19917;-63
2022/10/26 05:20:31;;;;;;;;;;;16.30;99.90;;;;;;4996610;28;20242;-63
2022/10/26 05:22:57;;;;;;;;;;;16.30;99.90;;;;;;4988942;28;19917;-62
2022/10/26 05:25:23;;;;;;;;;;;16.30;99.90;;;;;;4997361;28;19909;-62
2022/10/26 05:27:49;;;;;;;;;;;16.30;99.90;;;;;;4997063;28;19929;-62
2022/10/26 05:30:14;;;;;;;;;;;16.30;99.90;;;;;;4995357;28;20000;-63
2022/10/26 05:32:40;;;;;;;;;;;16.40;99.90;;;;;;4982207;28;19918;-64
2022/10/26 05:35:05;;;;;;;;;;;16.40;99.90;;;;;;4989227;28;20044;-63
2022/10/26 05:37:31;;;;;;;;;;;16.40;99.90;;;;;;4984673;28;20421;-63
2022/10/26 05:39:56;;;;;;;;;;;16.40;99.90;;;;;;4999515;28;19909;-62
2022/10/26 05:42:22;;;;;;;;;;;16.40;99.90;;;;;;4998354;28;20004;-62
2022/10/26 05:44:48;;;;;;;;;;;16.40;99.90;;;;;;4995901;28;19917;-62
2022/10/26 05:47:13;;;;;;;;;;;16.40;99.90;;;;;;4990308;28;19925;-62
2022/10/26 05:49:39;;;;;;;;;;;16.40;99.90;;;;;;4996415;28;19914;-63
2022/10/26 05:52:04;;;;;;;;;;;16.40;99.90;;;;;;4988315;28;20008;-63
2022/10/26 05:54:30;;;;;;;;;;;16.40;99.90;;;;;;4989853;28;19909;-63
2022/10/26 05:56:55;;;;;;;;;;;16.50;99.90;;;;;;4991574;28;20317;-63
2022/10/26 05:59:21;;;;;;;;;;;16.50;99.90;;;;;;4991105;28;20281;-63
2022/10/26 06:01:56;;;;;;;;;;;16.50;99.90;;;;;;4997030;28;20301;-64
2022/10/26 06:04:29;;;;;;;;;;;16.50;99.90;;;;;;4988594;28;19914;-63
2022/10/26 06:06:55;;;;;;;;;;;16.50;99.90;;;;;;4993813;28;19917;-64
2022/10/26 06:09:21;;;;;;;;;;;16.50;99.90;;;;;;4989762;28;19914;-63
2022/10/26 06:11:47;;;;;;;;;;;16.50;99.90;;;;;;4997780;28;20284;-62
2022/10/26 06:14:12;;;;;;;;;;;16.50;99.90;;;;;;4990920;28;20638;-62
2022/10/26 06:16:38;;;;;;;;;;;16.40;99.90;;;;;;4994778;28;19983;-63
2022/10/26 06:19:13;;;;;;;;;;;16.40;99.90;;;;;;4988575;28;19910;-62
2022/10/26 06:21:57;;;;;;;;;;;16.50;99.90;;;;;;5005606;28;20357;-62
2022/10/26 06:24:25;;;;;;;;;;;16.50;99.90;;;;;;4990460;28;20013;-63
2022/10/26 06:26:53;;;;;;;;;;;16.50;99.90;;;;;;4998374;28;19917;-63
2022/10/26 06:29:39;;;;;;;;;;;16.50;99.90;;;;;;4991865;28;19925;-63
2022/10/26 06:32:06;;;;;;;;;;;16.40;99.90;;;;;;4991315;28;19909;-63
2022/10/26 06:34:33;;;;;;;;;;;16.50;99.90;;;;;;4993342;28;19921;-65
2022/10/26 06:36:59;;;;;;;;;;;16.50;99.90;;;;;;5000922;28;19909;-62
2022/10/26 06:39:26;;;;;;;;;;;16.40;99.90;;;;;;4998139;28;19910;-65
2022/10/26 06:41:52;;;;;;;;;;;16.30;99.90;;;;;;4990487;28;20427;-64
2022/10/26 06:44:22;;;;;;;;;;;16.20;99.90;;;;;;4992209;28;20000;-65
2022/10/26 06:46:53;;;;;;;;;;;16.10;99.90;;;;;;4981434;28;20048;-65
2022/10/26 06:49:38;;;;;;;;;;;16.00;99.90;;;;;;4996129;28;21568;-65
2022/10/26 06:52:03;;;;;;;;;;;16.00;99.90;;;;;;4994481;28;19917;-64
2022/10/26 06:54:29;;;;;;;;;;;15.90;99.90;;;;;;4990089;28;20124;-65
2022/10/26 06:56:54;;;;;;;;;;;15.90;99.90;;;;;;4987055;28;19909;-65
2022/10/26 06:59:46;;;;;;;;;;;15.80;99.90;;;;;;4993062;28;19917;-65
2022/10/26 07:02:13;;;;;;;;;;;15.90;99.90;;;;;;4988636;28;19921;-64
2022/10/26 07:04:39;;;;;;;;;;;15.90;99.90;;;;;;4991241;28;19913;-64
2022/10/26 07:07:04;;;;;;;;;;;15.90;99.90;;;;;;4990467;28;19910;-63
2022/10/26 07:09:30;;;;;;;;;;;15.80;99.90;;;;;;4988662;28;19932;-63
2022/10/26 07:11:55;;;;;;;;;;;15.80;99.90;;;;;;4982389;28;19949;-63
2022/10/26 07:14:21;;;;;;;;;;;15.80;99.90;;;;;;4989032;28;20000;-64
2022/10/26 07:16:46;;;;;;;;;;;15.80;99.90;;;;;;4989669;28;20068;-64
2022/10/26 07:19:12;;;;;;;;;;;15.80;99.90;;;;;;4991986;28;20011;-63
2022/10/26 07:21:37;;;;;;;;;;;15.80;99.90;;;;;;4989526;28;19913;-63
2022/10/26 07:24:03;;;;;;;;;;;15.80;99.90;;;;;;4982208;28;19910;-64
2022/10/26 07:26:29;;;;;;;;;;;15.80;99.90;;;;;;4989264;28;19910;-64
2022/10/26 07:28:54;;;;;;;;;;;15.90;99.90;;;;;;4983978;28;19925;-64
2022/10/26 07:31:20;;;;;;;;;;;15.90;99.90;;;;;;4985494;28;20306;-65
2022/10/26 07:33:45;;;;;;;;;;;15.90;99.90;;;;;;4991402;28;20431;-64
2022/10/26 07:36:11;;;;;;;;;;;16.00;99.90;;;;;;4989051;28;19916;-64
2022/10/26 07:38:37;;;;;;;;;;;16.00;99.90;;;;;;4991098;28;19997;-64
2022/10/26 07:41:03;;;;;;;;;;;16.10;99.90;;;;;;4983210;28;20296;-64
2022/10/26 07:43:29;;;;;;;;;;;16.10;99.90;;;;;;4987162;28;19913;-64
2022/10/26 07:45:55;;;;;;;;;;;16.20;99.90;;;;;;4986224;28;19957;-64
2022/10/26 07:48:20;;;;;;;;;;;16.30;99.90;;;;;;4988806;28;19964;-64
2022/10/26 07:50:46;;;;;;;;;;;16.40;99.90;;;;;;4988955;28;19952;-64
2022/10/26 07:53:12;;;;;;;;;;;16.50;99.90;;;;;;4988765;28;19921;-64
2022/10/26 07:55:37;;;;;;;;;;;16.50;99.90;;;;;;4988316;28;19910;-64
2022/10/26 07:58:03;;;;;;;;;;;16.50;99.90;;;;;;4986393;28;20012;-65
2022/10/26 08:00:28;;;;;;;;;;;16.60;99.90;;;;;;4988923;28;20003;-65
2022/10/26 08:02:54;;;;;;;;;;;16.60;99.90;;;;;;4987607;28;19926;-64
2022/10/26 08:05:20;;;;;;;;;;;16.70;99.90;;;;;;4979119;28;19964;-64
2022/10/26 08:07:46;;;;;;;;;;;16.80;99.90;;;;;;4990729;28;19941;-64
2022/10/26 08:10:12;;;;;;;;;;;16.70;99.90;;;;;;4987946;28;19910;-65
2022/10/26 08:12:37;;;;;;;;;;;16.70;99.90;;;;;;4989706;28;19994;-64
2022/10/26 08:15:03;;;;;;;;;;;16.70;99.90;;;;;;5002117;28;19913;-64
2022/10/26 08:17:29;;;;;;;;;;;16.80;99.90;;;;;;4992688;28;19920;-65
2022/10/26 08:19:54;;;;;;;;;;;16.80;99.90;;;;;;4996396;28;19910;-65
2022/10/26 08:22:20;;;;;;;;;;;16.80;99.90;;;;;;4990589;28;19914;-65
2022/10/26 08:24:45;;;;;;;;;;;16.90;99.90;;;;;;4989426;28;20388;-65
2022/10/26 08:27:12;;;;;;;;;;;16.90;99.90;;;;;;4984816;28;19920;-65
2022/10/26 08:29:38;;;;;;;;;;;16.90;99.90;;;;;;4980155;28;19910;-65
2022/10/26 08:32:04;;;;;;;;;;;16.90;99.90;;;;;;4982898;28;19979;-65
2022/10/26 08:34:29;;;;;;;;;;;16.90;99.90;;;;;;4982706;28;20324;-65
2022/10/26 08:36:55;;;;;;;;;;;16.90;99.90;;;;;;4987292;28;19920;-64
2022/10/26 08:39:20;;;;;;;;;;;17.10;99.90;;;;;;4987957;28;20013;-65
2022/10/26 08:41:51;;;;;;;;;;;17.20;99.90;;;;;;4991467;28;19936;-65
2022/10/26 08:44:29;;;;;;;;;;;17.40;99.90;;;;;;4983806;28;20285;-62
2022/10/26 08:47:16;;;;;;;;;;;17.50;99.90;;;;;;4988060;28;19985;-63
2022/10/26 08:49:45;;;;;;;;;;;17.60;99.90;;;;;;4984610;28;20335;-63
2022/10/26 08:52:13;;;;;;;;;;;17.70;99.90;;;;;;4985208;28;19952;-62
2022/10/26 08:54:41;;;;;;;;;;;17.80;99.90;;;;;;4986718;28;20011;-65
2022/10/26 08:57:14;;;;;;;;;;;17.80;99.90;;;;;;4986255;28;19910;-63
2022/10/26 08:59:54;;;;;;;;;;;17.80;99.90;;;;;;4985385;28;19932;-63
2022/10/26 09:02:20;;;;;;;;;;;17.80;99.90;;;;;;4986563;28;19925;-63
2022/10/26 09:04:46;;;;;;;;;;;18.00;99.90;;;;;;4985326;28;20277;-63
2022/10/26 09:07:40;;;;;;;;;;;18.10;99.90;;;;;;4990352;28;20381;-64
2022/10/26 09:10:26;;;;;;;;;;;18.10;99.90;;;;;;4940953;29;19914;-64
2022/10/26 09:13:01;;;;;;;;;;;18.10;99.90;;;;;;4937436;28;19910;-64
2022/10/26 09:15:29;;;;;;;;;;;18.10;99.90;;;;;;4943620;29;20382;-64
2022/10/26 09:18:03;;;;;;;;;;;18.10;99.90;;;;;;4944256;29;19919;-63
2022/10/26 09:20:51;;;;;;;;;;;18.10;99.90;;;;;;4941391;29;19968;-63
2022/10/26 09:23:37;;;;;;;;;;;18.20;99.90;;;;;;4928628;29;19932;-64
2022/10/26 09:26:05;;;;;;;;;;;18.40;99.90;;;;;;4942630;29;19919;-60
2022/10/26 09:28:35;;;;;;;;;;;18.50;99.90;;;;;;4941728;29;19958;-63
2022/10/26 09:31:01;;;;;;;;;;;18.50;99.90;;;;;;4940697;29;20387;-62
2022/10/26 09:33:27;;;;;;;;;;;18.30;99.90;;;;;;4945636;29;19919;-62
2022/10/26 09:36:05;;;;;;;;;;;18.30;99.90;;;;;;4943276;29;19976;-63
2022/10/26 09:38:33;;;;;;;;;;;18.20;99.90;;;;;;4943952;28;19965;-63
2022/10/26 09:41:01;;;;;;;;;;;18.10;99.90;;;;;;4942572;28;19910;-63
2022/10/26 09:43:27;;;;;;;;;;;18.00;99.90;;;;;;4939984;29;19921;-63
2022/10/26 09:45:52;;;;;;;;;;;18.00;99.90;;;;;;4954432;28;19917;-63
2022/10/26 09:48:26;;;;;;;;;;;18.10;99.90;;;;;;4994071;28;19917;-63
2022/10/26 09:50:51;;;;;;;;;;;18.10;99.90;;;;;;4995708;28;19921;-63
2022/10/26 09:53:17;;;;;;;;;;;18.10;99.90;;;;;;4989045;28;20273;-63
2022/10/26 09:55:47;;;;;;;;;;;18.30;99.90;;;;;;4993033;28;19929;-65
2022/10/26 09:58:15;;;;;;;;;;;18.30;99.90;;;;;;4985253;28;20008;-63
2022/10/26 10:00:41;;;;;;;;;;;18.40;99.90;;;;;;4995885;28;19909;-63
2022/10/26 10:03:17;;;;;;;;;;;18.50;99.90;;;;;;4986916;28;20293;-64
2022/10/26 10:05:42;;;;;;;;;;;18.50;99.90;;;;;;4982916;28;19913;-64
2022/10/26 10:08:24;;;;;;;;;;;18.60;99.90;;;;;;4987272;28;19917;-63
2022/10/26 10:10:58;;;;;;;;;;;18.50;99.90;;;;;;4986951;28;19925;-64
2022/10/26 10:13:25;;;;;;;;;;;18.40;99.90;;;;;;4996041;28;19915;-64
2022/10/26 10:15:52;;;;;;;;;;;18.50;99.90;;;;;;4985886;28;19910;-62
2022/10/26 10:18:19;;;;;;;;;;;18.40;99.90;;;;;;4984758;28;19910;-64
2022/10/26 10:20:50;;;;;;;;;;;18.40;99.90;;;;;;4990143;28;20445;-63
2022/10/26 10:23:26;;;;;;;;;;;18.40;99.90;;;;;;4988220;28;19913;-63
2022/10/26 10:26:12;;;;;;;;;;;18.30;99.90;;;;;;4990253;28;19965;-62
2022/10/26 10:28:41;;;;;;;;;;;18.30;99.90;;;;;;4989576;28;19953;-62
2022/10/26 10:31:20;;;;;;;;;;;18.40;99.90;;;;;;4988222;28;19916;-62
2022/10/26 10:33:48;;;;;;;;;;;18.40;99.90;;;;;;4991771;28;19914;-63
2022/10/26 10:36:15;;;;;;;;;;;18.40;99.90;;;;;;4986979;28;19916;-64
2022/10/26 10:38:44;;;;;;;;;;;18.40;99.90;;;;;;4987752;28;19917;-64
2022/10/26 10:41:18;;;;;;;;;;;18.40;99.90;;;;;;4990032;28;19910;-62
2022/10/26 10:43:46;;;;;;;;;;;18.50;99.90;;;;;;4989568;28;19914;-63
2022/10/26 10:46:16;;;;;;;;;;;18.50;99.90;;;;;;4984469;28;19953;-62
2022/10/26 10:48:45;;;;;;;;;;;18.60;99.90;;;;;;4992881;28;20352;-62
2022/10/26 10:51:17;;;;;;;;;;;18.60;99.90;;;;;;4993089;28;20289;-62
2022/10/26 10:53:44;;;;;;;;;;;18.60;99.90;;;;;;4987802;28;19918;-63
2022/10/26 10:56:17;;;;;;;;;;;18.60;99.90;;;;;;4992499;28;19914;-61
2022/10/26 10:59:00;;;;;;;;;;;18.60;99.90;;;;;;4992796;28;19913;-63
2022/10/26 11:01:29;;;;;;;;;;;18.70;99.90;;;;;;4993314;28;20273;-64
2022/10/26 11:03:58;;;;;;;;;;;18.80;99.90;;;;;;4985831;28;19972;-67
2022/10/26 11:06:27;;;;;;;;;;;19.40;99.90;;;;;;4989030;28;19953;-64
2022/10/26 11:09:00;;;;;;;;;;;19.60;99.90;;;;;;4989995;28;19968;-63
2022/10/26 11:11:30;;;;;;;;;;;19.60;99.90;;;;;;4989274;28;19953;-62
2022/10/26 11:14:10;;;;;;;;;;;20.00;99.90;;;;;;4985651;28;19925;-65
2022/10/26 11:16:43;;;;;;;;;;;20.30;99.90;;;;;;4990369;28;20362;-63
2022/10/26 11:19:38;;;;;;;;;;;20.60;99.90;;;;;;4986866;28;19917;-62
2022/10/26 11:22:04;;;;;;;;;;;20.50;99.90;;;;;;4987717;28;20000;-62
2022/10/26 11:24:30;;;;;;;;;;;20.30;99.90;;;;;;4990558;28;19909;-63
2022/10/26 11:26:58;;;;;;;;;;;20.60;99.90;;;;;;4984703;28;19910;-62
2022/10/26 11:29:42;;;;;;;;;;;20.90;99.90;;;;;;4989482;28;20396;-64
2022/10/26 11:32:29;;;;;;;;;;;21.00;99.90;;;;;;4987067;28;19910;-63
2022/10/26 11:35:10;;;;;;;;;;;21.10;99.90;;;;;;4991455;28;19975;-63
2022/10/26 11:37:41;;;;;;;;;;;21.20;99.90;;;;;;4991567;28;20054;-62
2022/10/26 11:40:06;;;;;;;;;;;21.30;99.90;;;;;;4988118;28;19917;-63
2022/10/26 11:42:45;;;;;;;;;;;21.20;99.90;;;;;;4984713;28;19910;-63
2022/10/26 11:45:21;;;;;;;;;;;21.10;99.90;;;;;;4989613;28;19917;-63
2022/10/26 11:47:56;;;;;;;;;;;21.10;99.90;;;;;;4976716;28;19922;-64
2022/10/26 11:50:24;;;;;;;;;;;21.20;99.90;;;;;;4992350;28;19913;-64
2022/10/26 11:52:49;;;;;;;;;;;21.30;99.90;;;;;;4988690;28;20020;-61
2022/10/26 11:55:16;;;;;;;;;;;21.50;99.90;;;;;;4988165;28;19989;-62
2022/10/26 11:57:44;;;;;;;;;;;21.50;99.90;;;;;;4987460;28;19916;-61
2022/10/26 12:00:15;;;;;;;;;;;21.80;99.90;;;;;;4990889;28;19956;-63
2022/10/26 12:02:42;;;;;;;;;;;21.90;99.90;;;;;;4988862;28;19953;-63
2022/10/26 12:05:14;;;;;;;;;;;22.00;99.90;;;;;;4982445;28;19963;-62
2022/10/26 12:07:42;;;;;;;;;;;22.40;99.90;;;;;;4984106;28;20270;-61
2022/10/26 12:10:13;;;;;;;;;;;22.50;99.90;;;;;;4984555;28;19975;-61
2022/10/26 12:12:45;;;;;;;;;;;22.10;99.90;;;;;;4972585;28;20001;-62
2022/10/26 12:15:17;;;;;;;;;;;22.00;99.90;;;;;;4987337;28;19913;-61
2022/10/26 12:17:43;;;;;;;;;;;21.50;99.90;;;;;;4990550;28;19913;-63
2022/10/26 12:20:40;;;;;;;;;;;21.20;99.90;;;;;;4983021;28;19910;-63
2022/10/26 12:23:08;;;;;;;;;;;21.50;99.90;;;;;;4985911;28;19996;-64
2022/10/26 12:25:33;;;;;;;;;;;22.40;99.90;;;;;;4983335;28;19909;-62
2022/10/26 12:27:59;;;;;;;;;;;22.80;99.90;;;;;;4979513;28;19920;-62
2022/10/26 12:30:26;;;;;;;;;;;23.00;99.90;;;;;;4985138;28;19910;-62
2022/10/26 12:32:56;;;;;;;;;;;23.00;99.90;;;;;;4986805;28;19917;-62
2022/10/26 12:35:30;;;;;;;;;;;22.60;99.90;;;;;;4986432;28;20513;-62
2022/10/26 12:37:55;;;;;;;;;;;21.90;99.90;;;;;;4990123;28;20568;-62
2022/10/26 12:40:31;;;;;;;;;;;21.80;99.90;;;;;;4985754;28;20354;-62
2022/10/26 12:42:57;;;;;;;;;;;22.10;99.90;;;;;;4988563;28;19963;-62
2022/10/26 12:45:23;;;;;;;;;;;21.90;99.90;;;;;;4986778;28;19963;-61
2022/10/26 12:47:49;;;;;;;;;;;22.20;99.90;;;;;;4985588;28;19936;-62
2022/10/26 12:50:14;;;;;;;;;;;22.40;99.90;;;;;;4987963;28;19913;-62
2022/10/26 12:52:40;;;;;;;;;;;22.60;99.90;;;;;;4986630;28;20404;-62
2022/10/26 12:55:11;;;;;;;;;;;22.70;99.90;;;;;;4984545;28;19910;-62
2022/10/26 12:57:49;;;;;;;;;;;22.70;99.90;;;;;;4980473;28;20227;-62
2022/10/26 13:00:21;;;;;;;;;;;22.70;99.90;;;;;;4983713;28;19910;-62
2022/10/26 13:02:53;;;;;;;;;;;23.40;99.90;;;;;;4986337;28;19917;-63
2022/10/26 13:05:18;;;;;;;;;;;23.30;99.90;;;;;;4983620;28;19910;-61
2022/10/26 13:07:44;;;;;;;;;;;23.10;99.90;;;;;;4975805;28;19924;-63
2022/10/26 13:10:10;;;;;;;;;;;22.90;99.90;;;;;;4985648;28;19917;-62
2022/10/26 13:12:52;;;;;;;;;;;23.20;99.90;;;;;;4984286;28;19910;-62
2022/10/26 13:15:21;;;;;;;;;;;23.10;99.90;;;;;;4988126;28;19953;-61
2022/10/26 13:17:55;;;;;;;;;;;22.80;99.90;;;;;;4986185;28;19932;-62
2022/10/26 13:20:21;;;;;;;;;;;22.60;99.90;;;;;;4988311;28;19913;-61
2022/10/26 13:22:46;;;;;;;;;;;22.10;99.90;;;;;;4990259;28;19983;-62
2022/10/26 13:25:17;;;;;;;;;;;22.00;99.90;;;;;;4986652;28;19916;-62
2022/10/26 13:27:43;;;;;;;;;;;22.20;99.90;;;;;;4990284;28;19918;-63
2022/10/26 13:30:16;;;;;;;;;;;22.50;99.90;;;;;;4990940;28;20281;-65
2022/10/26 13:32:47;;;;;;;;;;;22.70;99.90;;;;;;4986889;28;19932;-63
2022/10/26 13:35:13;;;;;;;;;;;22.40;99.90;;;;;;4986490;28;20358;-62
2022/10/26 13:37:42;;;;;;;;;;;23.00;99.90;;;;;;4994460;28;19910;-63
2022/10/26 13:40:11;;;;;;;;;;;23.30;99.90;;;;;;4990949;28;19922;-63
2022/10/26 13:42:56;;;;;;;;;;;23.50;99.90;;;;;;4985156;28;19917;-63
2022/10/26 13:45:30;;;;;;;;;;;23.50;99.90;;;;;;4989221;28;19910;-63
2022/10/26 13:48:11;;;;;;;;;;;23.60;99.90;;;;;;4985909;28;19976;-62
2022/10/26 13:50:40;;;;;;;;;;;23.90;99.90;;;;;;4984979;28;19909;-62
2022/10/26 13:53:21;;;;;;;;;;;24.00;99.90;;;;;;4989581;28;19909;-63
2022/10/26 13:55:46;;;;;;;;;;;24.10;99.90;;;;;;4989704;28;20007;-63
2022/10/26 13:58:18;;;;;;;;;;;23.90;99.90;;;;;;4988180;28;20418;-64
2022/10/26 14:01:03;;;;;;;;;;;24.20;99.90;;;;;;4984683;28;19917;-62
2022/10/26 14:03:28;;;;;;;;;;;24.20;99.90;;;;;;4986838;28;20363;-62
2022/10/26 14:05:55;;;;;;;;;;;23.50;99.90;;;;;;4990779;28;19910;-62
2022/10/26 14:08:20;;;;;;;;;;;23.30;99.90;;;;;;4987684;28;19926;-63
2022/10/26 14:10:56;;;;;;;;;;;23.50;99.90;;;;;;4990865;28;19916;-63
2022/10/26 14:13:24;;;;;;;;;;;23.90;99.90;;;;;;4988885;28;19933;-62
2022/10/26 14:15:50;;;;;;;;;;;23.70;99.90;;;;;;4988700;28;19917;-62
2022/10/26 14:18:21;;;;;;;;;;;23.80;99.90;;;;;;4985340;28;20631;-62
2022/10/26 14:20:51;;;;;;;;;;;23.80;99.90;;;;;;4985265;28;19914;-62
2022/10/26 14:23:33;;;;;;;;;;;23.60;99.90;;;;;;4986587;28;19910;-64
2022/10/26 14:25:58;;;;;;;;;;;23.20;99.90;;;;;;4987207;28;19910;-62